sensor_id;sensor_type;location;lat;lon;timestamp;temperature;humidity
67641;SHT31;54434;50.096;20.082;2024-02-26T00:02:33;7.97;73.05
67641;SHT31;54434;50.096;20.082;2024-02-26T00:05:29;7.95;72.93
67641;SHT31;54434;50.096;20.082;2024-02-26T00:08:23;7.94;72.81
67641;SHT31;54434;50.096;20.082;2024-02-26T00:11:17;7.92;72.84
67641;SHT31;54434;50.096;20.082;2024-02-26T00:14:11;7.88;73.00
67641;SHT31;54434;50.096;20.082;2024-02-26T00:17:05;7.84;73.01
67641;SHT31;54434;50.096;20.082;2024-02-26T00:19:59;7.76;73.08
67641;SHT31;54434;50.096;20.082;2024-02-26T00:22:53;7.67;73.30
67641;SHT31;54434;50.096;20.082;2024-02-26T00:25:47;7.65;73.31
67641;SHT31;54434;50.096;20.082;2024-02-26T00:28:40;7.61;73.34
67641;SHT31;54434;50.096;20.082;2024-02-26T00:31:34;7.57;73.46
67641;SHT31;54434;50.096;20.082;2024-02-26T00:34:30;7.53;73.51
67641;SHT31;54434;50.096;20.082;2024-02-26T00:37:24;7.47;73.61
67641;SHT31;54434;50.096;20.082;2024-02-26T00:40:18;7.43;73.78
67641;SHT31;54434;50.096;20.082;2024-02-26T00:43:11;7.36;73.78
67641;SHT31;54434;50.096;20.082;2024-02-26T00:46:05;7.28;73.93
67641;SHT31;54434;50.096;20.082;2024-02-26T00:48:58;7.19;74.24
67641;SHT31;54434;50.096;20.082;2024-02-26T00:51:52;7.15;74.36
67641;SHT31;54434;50.096;20.082;2024-02-26T00:54:45;7.18;74.40
67641;SHT31;54434;50.096;20.082;2024-02-26T00:57:39;7.21;74.38
67641;SHT31;54434;50.096;20.082;2024-02-26T01:00:33;7.22;74.46
67641;SHT31;54434;50.096;20.082;2024-02-26T01:03:27;7.22;74.58
67641;SHT31;54434;50.096;20.082;2024-02-26T01:06:22;7.23;74.62
67641;SHT31;54434;50.096;20.082;2024-02-26T01:09:15;7.22;74.70
67641;SHT31;54434;50.096;20.082;2024-02-26T01:12:09;7.23;74.70
67641;SHT31;54434;50.096;20.082;2024-02-26T01:15:03;7.24;74.69
67641;SHT31;54434;50.096;20.082;2024-02-26T01:17:59;7.20;74.78
67641;SHT31;54434;50.096;20.082;2024-02-26T01:20:53;7.18;74.88
67641;SHT31;54434;50.096;20.082;2024-02-26T01:23:47;7.14;74.96
67641;SHT31;54434;50.096;20.082;2024-02-26T01:26:41;7.13;74.96
67641;SHT31;54434;50.096;20.082;2024-02-26T01:29:34;7.10;74.85
67641;SHT31;54434;50.096;20.082;2024-02-26T01:32:28;7.05;74.71
67641;SHT31;54434;50.096;20.082;2024-02-26T01:35:22;6.99;74.85
67641;SHT31;54434;50.096;20.082;2024-02-26T01:38:16;6.93;74.88
67641;SHT31;54434;50.096;20.082;2024-02-26T01:41:10;6.88;74.84
67641;SHT31;54434;50.096;20.082;2024-02-26T01:44:04;6.80;74.89
67641;SHT31;54434;50.096;20.082;2024-02-26T01:47:02;6.71;74.90
67641;SHT31;54434;50.096;20.082;2024-02-26T01:49:58;6.62;74.98
67641;SHT31;54434;50.096;20.082;2024-02-26T01:52:52;6.59;75.14
67641;SHT31;54434;50.096;20.082;2024-02-26T01:55:48;6.51;75.00
67641;SHT31;54434;50.096;20.082;2024-02-26T01:58:41;6.44;75.02
67641;SHT31;54434;50.096;20.082;2024-02-26T02:01:35;6.34;74.97
67641;SHT31;54434;50.096;20.082;2024-02-26T02:04:34;6.24;75.02
67641;SHT31;54434;50.096;20.082;2024-02-26T02:07:29;6.13;75.18
67641;SHT31;54434;50.096;20.082;2024-02-26T02:10:24;6.03;75.34
67641;SHT31;54434;50.096;20.082;2024-02-26T02:13:18;5.95;75.46
67641;SHT31;54434;50.096;20.082;2024-02-26T02:16:11;5.87;75.51
67641;SHT31;54434;50.096;20.082;2024-02-26T02:19:05;5.77;75.59
67641;SHT31;54434;50.096;20.082;2024-02-26T02:21:59;5.68;75.83
67641;SHT31;54434;50.096;20.082;2024-02-26T02:24:53;5.60;75.87
67641;SHT31;54434;50.096;20.082;2024-02-26T02:27:47;5.52;75.86
67641;SHT31;54434;50.096;20.082;2024-02-26T02:30:40;5.41;76.26
67641;SHT31;54434;50.096;20.082;2024-02-26T02:33:34;5.34;76.35
67641;SHT31;54434;50.096;20.082;2024-02-26T02:36:28;5.28;76.48
67641;SHT31;54434;50.096;20.082;2024-02-26T02:39:22;5.21;76.73
67641;SHT31;54434;50.096;20.082;2024-02-26T02:42:16;5.16;77.04
67641;SHT31;54434;50.096;20.082;2024-02-26T02:45:10;5.13;77.27
67641;SHT31;54434;50.096;20.082;2024-02-26T02:48:05;5.10;77.40
67641;SHT31;54434;50.096;20.082;2024-02-26T02:50:59;5.07;77.50
67641;SHT31;54434;50.096;20.082;2024-02-26T02:53:53;5.05;77.49
67641;SHT31;54434;50.096;20.082;2024-02-26T02:56:47;5.00;77.53
67641;SHT31;54434;50.096;20.082;2024-02-26T02:59:40;4.96;77.60
67641;SHT31;54434;50.096;20.082;2024-02-26T03:02:34;4.92;77.56
67641;SHT31;54434;50.096;20.082;2024-02-26T03:05:28;4.88;77.61
67641;SHT31;54434;50.096;20.082;2024-02-26T03:08:22;4.84;77.60
67641;SHT31;54434;50.096;20.082;2024-02-26T03:11:16;4.77;77.60
67641;SHT31;54434;50.096;20.082;2024-02-26T03:14:10;4.70;77.69
67641;SHT31;54434;50.096;20.082;2024-02-26T03:17:04;4.63;77.90
67641;SHT31;54434;50.096;20.082;2024-02-26T03:19:58;4.56;77.90
67641;SHT31;54434;50.096;20.082;2024-02-26T03:22:54;4.51;77.99
67641;SHT31;54434;50.096;20.082;2024-02-26T03:25:48;4.43;78.01
67641;SHT31;54434;50.096;20.082;2024-02-26T03:28:42;4.38;78.23
67641;SHT31;54434;50.096;20.082;2024-02-26T03:31:35;4.33;78.31
67641;SHT31;54434;50.096;20.082;2024-02-26T03:34:29;4.28;78.37
67641;SHT31;54434;50.096;20.082;2024-02-26T03:37:24;4.25;78.53
67641;SHT31;54434;50.096;20.082;2024-02-26T03:40:18;4.18;78.41
67641;SHT31;54434;50.096;20.082;2024-02-26T03:43:13;4.09;78.40
67641;SHT31;54434;50.096;20.082;2024-02-26T03:46:08;4.02;78.45
67641;SHT31;54434;50.096;20.082;2024-02-26T03:49:02;3.97;78.55
67641;SHT31;54434;50.096;20.082;2024-02-26T03:51:56;3.92;78.68
67641;SHT31;54434;50.096;20.082;2024-02-26T03:54:50;3.87;78.73
67641;SHT31;54434;50.096;20.082;2024-02-26T03:57:43;3.82;78.78
67641;SHT31;54434;50.096;20.082;2024-02-26T04:00:37;3.76;78.83
67641;SHT31;54434;50.096;20.082;2024-02-26T04:03:31;3.70;78.95
67641;SHT31;54434;50.096;20.082;2024-02-26T04:06:24;3.66;79.13
67641;SHT31;54434;50.096;20.082;2024-02-26T04:09:18;3.64;79.27
67641;SHT31;54434;50.096;20.082;2024-02-26T04:12:12;3.61;79.20
67641;SHT31;54434;50.096;20.082;2024-02-26T04:15:07;3.58;79.33
67641;SHT31;54434;50.096;20.082;2024-02-26T04:18:02;3.54;79.31
67641;SHT31;54434;50.096;20.082;2024-02-26T04:20:56;3.46;79.37
67641;SHT31;54434;50.096;20.082;2024-02-26T04:23:51;3.39;79.32
67641;SHT31;54434;50.096;20.082;2024-02-26T04:26:45;3.34;79.45
67641;SHT31;54434;50.096;20.082;2024-02-26T04:29:39;3.26;79.41
67641;SHT31;54434;50.096;20.082;2024-02-26T04:32:33;3.17;79.63
67641;SHT31;54434;50.096;20.082;2024-02-26T04:35:27;3.14;79.77
67641;SHT31;54434;50.096;20.082;2024-02-26T04:38:20;3.10;79.72
67641;SHT31;54434;50.096;20.082;2024-02-26T04:41:14;3.04;79.72
67641;SHT31;54434;50.096;20.082;2024-02-26T04:44:07;2.97;79.78
67641;SHT31;54434;50.096;20.082;2024-02-26T04:47:02;2.94;79.93
67641;SHT31;54434;50.096;20.082;2024-02-26T04:49:57;2.91;79.89
67641;SHT31;54434;50.096;20.082;2024-02-26T04:52:51;2.88;79.86
67641;SHT31;54434;50.096;20.082;2024-02-26T04:55:45;2.84;79.80
67641;SHT31;54434;50.096;20.082;2024-02-26T04:58:38;2.79;79.84
67641;SHT31;54434;50.096;20.082;2024-02-26T05:01:32;2.76;79.90
67641;SHT31;54434;50.096;20.082;2024-02-26T05:04:26;2.73;79.90
67641;SHT31;54434;50.096;20.082;2024-02-26T05:07:20;2.69;80.04
67641;SHT31;54434;50.096;20.082;2024-02-26T05:10:14;2.63;80.14
67641;SHT31;54434;50.096;20.082;2024-02-26T05:13:08;2.60;80.30
67641;SHT31;54434;50.096;20.082;2024-02-26T05:16:05;2.58;80.17
67641;SHT31;54434;50.096;20.082;2024-02-26T05:18:59;2.55;80.12
67641;SHT31;54434;50.096;20.082;2024-02-26T05:21:53;2.51;80.14
67641;SHT31;54434;50.096;20.082;2024-02-26T05:24:46;2.47;80.35
67641;SHT31;54434;50.096;20.082;2024-02-26T05:27:41;2.44;80.63
67641;SHT31;54434;50.096;20.082;2024-02-26T05:30:34;2.46;80.88
67641;SHT31;54434;50.096;20.082;2024-02-26T05:33:28;2.47;80.90
67641;SHT31;54434;50.096;20.082;2024-02-26T05:36:23;2.47;80.90
67641;SHT31;54434;50.096;20.082;2024-02-26T05:39:22;2.46;80.77
67641;SHT31;54434;50.096;20.082;2024-02-26T05:42:16;2.44;80.75
67641;SHT31;54434;50.096;20.082;2024-02-26T05:45:14;2.42;80.74
67641;SHT31;54434;50.096;20.082;2024-02-26T05:48:12;2.41;80.79
67641;SHT31;54434;50.096;20.082;2024-02-26T05:51:08;2.41;80.80
67641;SHT31;54434;50.096;20.082;2024-02-26T05:54:02;2.40;80.80
67641;SHT31;54434;50.096;20.082;2024-02-26T05:56:57;2.42;80.92
67641;SHT31;54434;50.096;20.082;2024-02-26T05:59:51;2.44;80.91
67641;SHT31;54434;50.096;20.082;2024-02-26T06:02:45;2.46;80.96
67641;SHT31;54434;50.096;20.082;2024-02-26T06:05:39;2.50;80.99
67641;SHT31;54434;50.096;20.082;2024-02-26T06:08:34;2.57;81.10
67641;SHT31;54434;50.096;20.082;2024-02-26T06:11:27;2.62;81.00
67641;SHT31;54434;50.096;20.082;2024-02-26T06:14:21;2.68;81.16
67641;SHT31;54434;50.096;20.082;2024-02-26T06:17:15;2.80;81.30
67641;SHT31;54434;50.096;20.082;2024-02-26T06:20:10;2.90;81.27
67641;SHT31;54434;50.096;20.082;2024-02-26T06:23:04;2.97;81.20
67641;SHT31;54434;50.096;20.082;2024-02-26T06:25:59;3.06;81.29
67641;SHT31;54434;50.096;20.082;2024-02-26T06:28:53;3.19;81.43
67641;SHT31;54434;50.096;20.082;2024-02-26T06:31:46;3.36;81.67
67641;SHT31;54434;50.096;20.082;2024-02-26T06:34:40;3.61;81.97
67641;SHT31;54434;50.096;20.082;2024-02-26T06:37:34;3.86;81.93
67641;SHT31;54434;50.096;20.082;2024-02-26T06:40:27;4.07;81.84
67641;SHT31;54434;50.096;20.082;2024-02-26T06:43:21;4.32;81.99
67641;SHT31;54434;50.096;20.082;2024-02-26T06:46:15;4.55;82.08
67641;SHT31;54434;50.096;20.082;2024-02-26T06:49:08;4.76;82.10
67641;SHT31;54434;50.096;20.082;2024-02-26T06:52:03;4.96;82.16
67641;SHT31;54434;50.096;20.082;2024-02-26T06:54:57;5.20;82.34
67641;SHT31;54434;50.096;20.082;2024-02-26T06:57:51;5.45;82.39
67641;SHT31;54434;50.096;20.082;2024-02-26T07:00:44;5.69;82.19
67641;SHT31;54434;50.096;20.082;2024-02-26T07:03:39;5.97;81.67
67641;SHT31;54434;50.096;20.082;2024-02-26T07:06:33;6.21;81.11
67641;SHT31;54434;50.096;20.082;2024-02-26T07:09:27;6.46;80.52
67641;SHT31;54434;50.096;20.082;2024-02-26T07:12:21;6.73;80.45
67641;SHT31;54434;50.096;20.082;2024-02-26T07:15:15;6.97;80.27
67641;SHT31;54434;50.096;20.082;2024-02-26T07:18:09;7.17;80.04
67641;SHT31;54434;50.096;20.082;2024-02-26T07:21:03;7.36;79.59
67641;SHT31;54434;50.096;20.082;2024-02-26T07:23:57;7.56;79.18
67641;SHT31;54434;50.096;20.082;2024-02-26T07:26:50;7.79;78.85
67641;SHT31;54434;50.096;20.082;2024-02-26T07:29:45;7.97;78.89
67641;SHT31;54434;50.096;20.082;2024-02-26T07:32:38;8.18;78.32
67641;SHT31;54434;50.096;20.082;2024-02-26T07:35:37;8.38;77.10
67641;SHT31;54434;50.096;20.082;2024-02-26T07:38:31;8.55;76.79
67641;SHT31;54434;50.096;20.082;2024-02-26T07:41:32;8.77;75.98
67641;SHT31;54434;50.096;20.082;2024-02-26T07:44:27;8.95;75.78
67641;SHT31;54434;50.096;20.082;2024-02-26T07:47:21;9.11;75.13
67641;SHT31;54434;50.096;20.082;2024-02-26T07:50:14;9.27;74.48
67641;SHT31;54434;50.096;20.082;2024-02-26T07:53:09;9.40;73.96
67641;SHT31;54434;50.096;20.082;2024-02-26T07:56:03;9.46;73.53
67641;SHT31;54434;50.096;20.082;2024-02-26T07:58:59;9.52;73.51
67641;SHT31;54434;50.096;20.082;2024-02-26T08:01:52;9.55;73.53
67641;SHT31;54434;50.096;20.082;2024-02-26T08:04:46;9.63;73.59
67641;SHT31;54434;50.096;20.082;2024-02-26T08:07:40;9.68;73.13
67641;SHT31;54434;50.096;20.082;2024-02-26T08:10:33;9.69;73.00
67641;SHT31;54434;50.096;20.082;2024-02-26T08:13:27;9.69;72.96
67641;SHT31;54434;50.096;20.082;2024-02-26T08:16:20;9.69;73.42
67641;SHT31;54434;50.096;20.082;2024-02-26T08:19:16;9.74;73.34
67641;SHT31;54434;50.096;20.082;2024-02-26T08:22:09;9.85;73.54
67641;SHT31;54434;50.096;20.082;2024-02-26T08:25:05;10.06;73.05
67641;SHT31;54434;50.096;20.082;2024-02-26T08:28:00;10.41;72.65
67641;SHT31;54434;50.096;20.082;2024-02-26T08:30:54;10.78;71.76
67641;SHT31;54434;50.096;20.082;2024-02-26T08:33:47;11.18;70.59
67641;SHT31;54434;50.096;20.082;2024-02-26T08:36:41;11.51;70.16
67641;SHT31;54434;50.096;20.082;2024-02-26T08:39:35;11.81;69.21
67641;SHT31;54434;50.096;20.082;2024-02-26T08:42:28;11.95;68.44
67641;SHT31;54434;50.096;20.082;2024-02-26T08:45:21;12.00;68.07
67641;SHT31;54434;50.096;20.082;2024-02-26T08:48:18;12.07;68.03
67641;SHT31;54434;50.096;20.082;2024-02-26T08:51:12;12.20;67.78
67641;SHT31;54434;50.096;20.082;2024-02-26T08:54:05;12.24;67.62
67641;SHT31;54434;50.096;20.082;2024-02-26T08:56:58;12.32;67.47
67641;SHT31;54434;50.096;20.082;2024-02-26T08:59:53;12.32;67.25
67641;SHT31;54434;50.096;20.082;2024-02-26T09:02:46;12.55;66.91
67641;SHT31;54434;50.096;20.082;2024-02-26T09:05:41;12.94;66.02
67641;SHT31;54434;50.096;20.082;2024-02-26T09:08:34;13.33;65.00
67641;SHT31;54434;50.096;20.082;2024-02-26T09:11:28;13.49;64.22
67641;SHT31;54434;50.096;20.082;2024-02-26T09:14:21;13.54;63.80
67641;SHT31;54434;50.096;20.082;2024-02-26T09:17:16;13.73;63.28
67641;SHT31;54434;50.096;20.082;2024-02-26T09:20:10;13.80;63.23
67641;SHT31;54434;50.096;20.082;2024-02-26T09:23:04;13.79;63.00
67641;SHT31;54434;50.096;20.082;2024-02-26T09:25:58;13.74;63.01
67641;SHT31;54434;50.096;20.082;2024-02-26T09:28:52;13.75;62.87
67641;SHT31;54434;50.096;20.082;2024-02-26T09:31:45;13.70;62.89
67641;SHT31;54434;50.096;20.082;2024-02-26T09:34:41;13.69;62.93
67641;SHT31;54434;50.096;20.082;2024-02-26T09:37:35;13.76;63.03
67641;SHT31;54434;50.096;20.082;2024-02-26T09:40:28;13.81;62.78
67641;SHT31;54434;50.096;20.082;2024-02-26T09:43:22;13.77;62.72
67641;SHT31;54434;50.096;20.082;2024-02-26T09:46:18;13.73;62.74
67641;SHT31;54434;50.096;20.082;2024-02-26T09:49:12;13.74;62.47
67641;SHT31;54434;50.096;20.082;2024-02-26T09:52:07;13.79;62.05
67641;SHT31;54434;50.096;20.082;2024-02-26T09:55:02;13.81;62.32
67641;SHT31;54434;50.096;20.082;2024-02-26T09:57:58;13.84;61.99
67641;SHT31;54434;50.096;20.082;2024-02-26T10:00:56;13.87;61.73
67641;SHT31;54434;50.096;20.082;2024-02-26T10:03:55;13.90;61.32
67641;SHT31;54434;50.096;20.082;2024-02-26T10:06:49;13.94;61.13
67641;SHT31;54434;50.096;20.082;2024-02-26T10:09:44;13.99;60.97
67641;SHT31;54434;50.096;20.082;2024-02-26T10:12:38;14.05;60.81
67641;SHT31;54434;50.096;20.082;2024-02-26T10:15:32;14.15;60.16
67641;SHT31;54434;50.096;20.082;2024-02-26T10:18:26;14.45;60.68
67641;SHT31;54434;50.096;20.082;2024-02-26T10:21:50;14.77;59.04
67641;SHT31;54434;50.096;20.082;2024-02-26T10:24:48;14.98;58.64
67641;SHT31;54434;50.096;20.082;2024-02-26T10:27:44;15.23;58.61
67641;SHT31;54434;50.096;20.082;2024-02-26T10:30:39;15.42;57.52
67641;SHT31;54434;50.096;20.082;2024-02-26T10:33:32;15.60;57.18
67641;SHT31;54434;50.096;20.082;2024-02-26T10:36:34;15.75;56.56
67641;SHT31;54434;50.096;20.082;2024-02-26T10:39:40;15.88;56.18
67641;SHT31;54434;50.096;20.082;2024-02-26T10:42:40;15.98;55.88
67641;SHT31;54434;50.096;20.082;2024-02-26T10:45:34;16.05;55.14
67641;SHT31;54434;50.096;20.082;2024-02-26T10:48:30;16.09;54.25
67641;SHT31;54434;50.096;20.082;2024-02-26T10:51:26;16.16;53.86
67641;SHT31;54434;50.096;20.082;2024-02-26T10:54:21;16.27;54.01
67641;SHT31;54434;50.096;20.082;2024-02-26T10:57:19;16.38;52.95
67641;SHT31;54434;50.096;20.082;2024-02-26T11:00:15;16.44;52.92
67641;SHT31;54434;50.096;20.082;2024-02-26T11:03:09;16.49;53.09
67641;SHT31;54434;50.096;20.082;2024-02-26T11:06:09;16.65;53.11
67641;SHT31;54434;50.096;20.082;2024-02-26T11:09:04;16.78;53.27
67641;SHT31;54434;50.096;20.082;2024-02-26T11:12:02;16.85;52.12
67641;SHT31;54434;50.096;20.082;2024-02-26T11:15:00;16.81;52.77
67641;SHT31;54434;50.096;20.082;2024-02-26T11:17:54;16.86;52.48
67641;SHT31;54434;50.096;20.082;2024-02-26T11:20:49;16.87;52.63
67641;SHT31;54434;50.096;20.082;2024-02-26T11:23:46;16.91;51.98
67641;SHT31;54434;50.096;20.082;2024-02-26T11:26:41;17.01;52.05
67641;SHT31;54434;50.096;20.082;2024-02-26T11:29:40;17.03;52.10
67641;SHT31;54434;50.096;20.082;2024-02-26T11:32:38;16.98;55.94
67641;SHT31;54434;50.096;20.082;2024-02-26T11:35:34;16.87;55.82
67641;SHT31;54434;50.096;20.082;2024-02-26T11:38:29;16.77;56.16
67641;SHT31;54434;50.096;20.082;2024-02-26T11:41:24;16.73;56.00
67641;SHT31;54434;50.096;20.082;2024-02-26T11:44:26;16.74;56.20
67641;SHT31;54434;50.096;20.082;2024-02-26T11:47:22;16.82;56.17
67641;SHT31;54434;50.096;20.082;2024-02-26T11:50:36;16.85;55.43
67641;SHT31;54434;50.096;20.082;2024-02-26T11:53:31;16.90;55.11
67641;SHT31;54434;50.096;20.082;2024-02-26T11:56:29;17.05;56.38
67641;SHT31;54434;50.096;20.082;2024-02-26T11:59:38;17.25;55.91
67641;SHT31;54434;50.096;20.082;2024-02-26T12:02:47;17.38;54.81
67641;SHT31;54434;50.096;20.082;2024-02-26T12:05:47;17.49;54.82
67641;SHT31;54434;50.096;20.082;2024-02-26T12:08:44;17.59;54.07
67641;SHT31;54434;50.096;20.082;2024-02-26T12:11:39;17.70;53.09
67641;SHT31;54434;50.096;20.082;2024-02-26T12:14:38;17.74;52.41
67641;SHT31;54434;50.096;20.082;2024-02-26T12:17:43;17.74;52.58
67641;SHT31;54434;50.096;20.082;2024-02-26T12:20:42;17.79;53.30
67641;SHT31;54434;50.096;20.082;2024-02-26T12:23:36;17.89;52.82
67641;SHT31;54434;50.096;20.082;2024-02-26T12:26:29;17.87;52.34
67641;SHT31;54434;50.096;20.082;2024-02-26T12:29:23;17.84;51.77
67641;SHT31;54434;50.096;20.082;2024-02-26T12:32:16;17.84;51.87
67641;SHT31;54434;50.096;20.082;2024-02-26T12:35:10;17.80;52.76
67641;SHT31;54434;50.096;20.082;2024-02-26T12:38:04;17.76;53.14
67641;SHT31;54434;50.096;20.082;2024-02-26T12:40:58;17.75;53.33
67641;SHT31;54434;50.096;20.082;2024-02-26T12:43:52;17.82;53.48
67641;SHT31;54434;50.096;20.082;2024-02-26T12:46:47;17.78;53.00
67641;SHT31;54434;50.096;20.082;2024-02-26T12:49:42;17.68;52.93
67641;SHT31;54434;50.096;20.082;2024-02-26T12:52:40;17.63;53.21
67641;SHT31;54434;50.096;20.082;2024-02-26T12:55:36;17.63;53.52
67641;SHT31;54434;50.096;20.082;2024-02-26T12:58:30;17.58;53.56
67641;SHT31;54434;50.096;20.082;2024-02-26T13:01:26;17.50;53.84
67641;SHT31;54434;50.096;20.082;2024-02-26T13:04:21;17.41;53.87
67641;SHT31;54434;50.096;20.082;2024-02-26T13:07:16;17.29;54.22
67641;SHT31;54434;50.096;20.082;2024-02-26T13:10:10;17.17;54.36
67641;SHT31;54434;50.096;20.082;2024-02-26T13:13:06;17.05;54.87
67641;SHT31;54434;50.096;20.082;2024-02-26T13:16:03;16.88;54.90
67641;SHT31;54434;50.096;20.082;2024-02-26T13:19:09;16.72;55.53
67641;SHT31;54434;50.096;20.082;2024-02-26T13:22:06;16.62;55.86
67641;SHT31;54434;50.096;20.082;2024-02-26T13:25:00;16.53;56.25
67641;SHT31;54434;50.096;20.082;2024-02-26T13:28:05;16.45;56.55
67641;SHT31;54434;50.096;20.082;2024-02-26T13:31:05;16.33;56.58
67641;SHT31;54434;50.096;20.082;2024-02-26T13:33:59;16.25;56.92
67641;SHT31;54434;50.096;20.082;2024-02-26T13:36:53;16.21;56.83
67641;SHT31;54434;50.096;20.082;2024-02-26T13:39:47;16.20;57.31
67641;SHT31;54434;50.096;20.082;2024-02-26T13:42:41;16.21;57.05
67641;SHT31;54434;50.096;20.082;2024-02-26T13:45:37;16.20;57.18
67641;SHT31;54434;50.096;20.082;2024-02-26T13:48:31;16.18;57.39
67641;SHT31;54434;50.096;20.082;2024-02-26T13:51:24;16.14;57.30
67641;SHT31;54434;50.096;20.082;2024-02-26T13:54:24;16.09;57.23
67641;SHT31;54434;50.096;20.082;2024-02-26T13:57:17;16.04;57.43
67641;SHT31;54434;50.096;20.082;2024-02-26T14:00:12;16.01;57.77
67641;SHT31;54434;50.096;20.082;2024-02-26T14:03:07;15.98;57.63
67641;SHT31;54434;50.096;20.082;2024-02-26T14:06:02;15.94;57.69
67641;SHT31;54434;50.096;20.082;2024-02-26T14:08:56;15.93;57.83
67641;SHT31;54434;50.096;20.082;2024-02-26T14:11:50;15.90;57.84
67641;SHT31;54434;50.096;20.082;2024-02-26T14:14:43;15.89;57.77
67641;SHT31;54434;50.096;20.082;2024-02-26T14:17:38;15.86;58.06
67641;SHT31;54434;50.096;20.082;2024-02-26T14:20:32;15.86;58.40
67641;SHT31;54434;50.096;20.082;2024-02-26T14:23:26;15.87;58.68
67641;SHT31;54434;50.096;20.082;2024-02-26T14:26:20;15.88;58.99
67641;SHT31;54434;50.096;20.082;2024-02-26T14:29:13;15.89;58.92
67641;SHT31;54434;50.096;20.082;2024-02-26T14:32:06;15.91;59.16
67641;SHT31;54434;50.096;20.082;2024-02-26T14:35:00;15.94;59.16
67641;SHT31;54434;50.096;20.082;2024-02-26T14:37:56;15.91;59.15
67641;SHT31;54434;50.096;20.082;2024-02-26T14:40:50;15.84;59.11
67641;SHT31;54434;50.096;20.082;2024-02-26T14:43:44;15.81;59.31
67641;SHT31;54434;50.096;20.082;2024-02-26T14:46:38;15.79;59.09
67641;SHT31;54434;50.096;20.082;2024-02-26T14:49:31;15.74;59.02
67641;SHT31;54434;50.096;20.082;2024-02-26T14:52:25;15.69;59.22
67641;SHT31;54434;50.096;20.082;2024-02-26T14:55:18;15.66;59.39
67641;SHT31;54434;50.096;20.082;2024-02-26T14:58:12;15.60;59.46
67641;SHT31;54434;50.096;20.082;2024-02-26T15:01:07;15.54;59.68
67641;SHT31;54434;50.096;20.082;2024-02-26T15:04:00;15.48;59.86
67641;SHT31;54434;50.096;20.082;2024-02-26T15:06:54;15.40;59.97
67641;SHT31;54434;50.096;20.082;2024-02-26T15:09:48;15.29;60.26
67641;SHT31;54434;50.096;20.082;2024-02-26T15:12:45;15.19;60.51
67641;SHT31;54434;50.096;20.082;2024-02-26T15:15:39;15.10;60.82
67641;SHT31;54434;50.096;20.082;2024-02-26T15:18:33;15.01;61.09
67641;SHT31;54434;50.096;20.082;2024-02-26T15:21:28;14.94;61.30
67641;SHT31;54434;50.096;20.082;2024-02-26T15:24:22;14.89;61.42
67641;SHT31;54434;50.096;20.082;2024-02-26T15:27:16;14.84;61.57
67641;SHT31;54434;50.096;20.082;2024-02-26T15:30:10;14.78;61.61
67641;SHT31;54434;50.096;20.082;2024-02-26T15:33:05;14.71;61.85
67641;SHT31;54434;50.096;20.082;2024-02-26T15:35:59;14.65;62.00
67641;SHT31;54434;50.096;20.082;2024-02-26T15:38:53;14.59;62.03
67641;SHT31;54434;50.096;20.082;2024-02-26T15:41:47;14.49;62.14
67641;SHT31;54434;50.096;20.082;2024-02-26T15:44:41;14.43;62.32
67641;SHT31;54434;50.096;20.082;2024-02-26T15:47:34;14.35;62.45
67641;SHT31;54434;50.096;20.082;2024-02-26T15:50:28;14.26;62.54
67641;SHT31;54434;50.096;20.082;2024-02-26T15:53:21;14.17;62.77
67641;SHT31;54434;50.096;20.082;2024-02-26T15:56:15;14.09;63.00
67641;SHT31;54434;50.096;20.082;2024-02-26T15:59:13;14.01;63.15
67641;SHT31;54434;50.096;20.082;2024-02-26T16:02:06;13.94;63.32
67641;SHT31;54434;50.096;20.082;2024-02-26T16:05:00;13.86;63.51
67641;SHT31;54434;50.096;20.082;2024-02-26T16:07:54;13.80;63.76
67641;SHT31;54434;50.096;20.082;2024-02-26T16:10:53;13.73;63.95
67641;SHT31;54434;50.096;20.082;2024-02-26T16:13:47;13.65;64.09
67641;SHT31;54434;50.096;20.082;2024-02-26T16:16:51;13.57;64.18
67641;SHT31;54434;50.096;20.082;2024-02-26T16:19:49;13.49;64.36
67641;SHT31;54434;50.096;20.082;2024-02-26T16:22:44;13.43;64.42
67641;SHT31;54434;50.096;20.082;2024-02-26T16:25:38;13.38;64.51
67641;SHT31;54434;50.096;20.082;2024-02-26T16:28:31;13.31;64.60
67641;SHT31;54434;50.096;20.082;2024-02-26T16:31:25;13.24;64.69
67641;SHT31;54434;50.096;20.082;2024-02-26T16:34:19;13.17;64.78
67641;SHT31;54434;50.096;20.082;2024-02-26T16:37:13;13.14;64.86
67641;SHT31;54434;50.096;20.082;2024-02-26T16:40:09;13.06;64.96
67641;SHT31;54434;50.096;20.082;2024-02-26T16:43:06;13.01;65.07
67641;SHT31;54434;50.096;20.082;2024-02-26T16:46:00;12.96;65.09
67641;SHT31;54434;50.096;20.082;2024-02-26T16:48:54;12.91;65.19
67641;SHT31;54434;50.096;20.082;2024-02-26T16:51:51;12.89;65.24
67641;SHT31;54434;50.096;20.082;2024-02-26T16:54:44;12.84;65.30
67641;SHT31;54434;50.096;20.082;2024-02-26T16:57:38;12.77;65.43
67641;SHT31;54434;50.096;20.082;2024-02-26T17:00:32;12.72;65.50
67641;SHT31;54434;50.096;20.082;2024-02-26T17:03:26;12.68;65.63
67641;SHT31;54434;50.096;20.082;2024-02-26T17:06:20;12.65;65.66
67641;SHT31;54434;50.096;20.082;2024-02-26T17:09:14;12.61;65.70
67641;SHT31;54434;50.096;20.082;2024-02-26T17:12:09;12.57;65.70
67641;SHT31;54434;50.096;20.082;2024-02-26T17:15:06;12.53;65.70
67641;SHT31;54434;50.096;20.082;2024-02-26T17:18:00;12.52;65.75
67641;SHT31;54434;50.096;20.082;2024-02-26T17:21:04;12.49;65.76
67641;SHT31;54434;50.096;20.082;2024-02-26T17:23:58;12.45;65.83
67641;SHT31;54434;50.096;20.082;2024-02-26T17:26:52;12.39;65.89
67641;SHT31;54434;50.096;20.082;2024-02-26T17:29:46;12.32;65.99
67641;SHT31;54434;50.096;20.082;2024-02-26T17:32:58;12.18;66.31
67641;SHT31;54434;50.096;20.082;2024-02-26T17:35:52;12.05;66.61
67641;SHT31;54434;50.096;20.082;2024-02-26T17:38:45;11.92;66.95
67641;SHT31;54434;50.096;20.082;2024-02-26T17:41:42;11.79;67.16
67641;SHT31;54434;50.096;20.082;2024-02-26T17:44:37;11.68;67.43
67641;SHT31;54434;50.096;20.082;2024-02-26T17:47:31;11.57;67.62
67641;SHT31;54434;50.096;20.082;2024-02-26T17:50:25;11.45;67.83
67641;SHT31;54434;50.096;20.082;2024-02-26T17:53:19;11.34;67.97
67641;SHT31;54434;50.096;20.082;2024-02-26T17:56:13;11.22;68.16
67641;SHT31;54434;50.096;20.082;2024-02-26T17:59:06;11.09;68.47
67641;SHT31;54434;50.096;20.082;2024-02-26T18:02:00;10.96;68.77
67641;SHT31;54434;50.096;20.082;2024-02-26T18:04:55;10.89;68.96
67641;SHT31;54434;50.096;20.082;2024-02-26T18:07:50;10.82;69.08
67641;SHT31;54434;50.096;20.082;2024-02-26T18:10:43;10.74;69.25
67641;SHT31;54434;50.096;20.082;2024-02-26T18:13:37;10.67;69.68
67641;SHT31;54434;50.096;20.082;2024-02-26T18:16:34;10.64;69.75